sensor_id;sensor_type;location;lat;lon;timestamp;P1;durP1;ratioP1;P2;durP2;ratioP2
86093;SDS011;76710;42.684;23.330;2024-03-29T00:02:22;3.47;;;1.23;;
86093;SDS011;76710;42.684;23.330;2024-03-29T00:04:48;4.13;;;0.90;;
86093;SDS011;76710;42.684;23.330;2024-03-29T00:07:13;4.65;;;1.38;;
86093;SDS011;76710;42.684;23.330;2024-03-29T00:09:38;3.55;;;1.20;;
86093;SDS011;76710;42.684;23.330;2024-03-29T00:12:04;7.53;;;2.80;;
86093;SDS011;76710;42.684;23.330;2024-03-29T00:14:31;4.07;;;1.20;;
86093;SDS011;76710;42.684;23.330;2024-03-29T00:16:56;5.57;;;1.60;;
86093;SDS011;76710;42.684;23.330;2024-03-29T00:19:22;2.75;;;0.75;;
86093;SDS011;76710;42.684;23.330;2024-03-29T00:21:47;2.95;;;0.60;;
86093;SDS011;76710;42.684;23.330;2024-03-29T00:24:13;2.78;;;0.80;;
86093;SDS011;76710;42.684;23.330;2024-03-29T00:26:38;3.47;;;0.55;;
86093;SDS011;76710;42.684;23.330;2024-03-29T00:29:04;4.45;;;0.80;;
86093;SDS011;76710;42.684;23.330;2024-03-29T00:31:29;2.67;;;0.50;;
86093;SDS011;76710;42.684;23.330;2024-03-29T00:33:55;1.67;;;0.50;;
86093;SDS011;76710;42.684;23.330;2024-03-29T00:36:20;1.75;;;0.50;;
86093;SDS011;76710;42.684;23.330;2024-03-29T00:38:45;1.95;;;0.60;;
86093;SDS011;76710;42.684;23.330;2024-03-29T00:41:11;6.57;;;1.25;;
86093;SDS011;76710;42.684;23.330;2024-03-29T00:43:36;3.20;;;0.80;;
86093;SDS011;76710;42.684;23.330;2024-03-29T00:46:02;2.53;;;0.70;;
86093;SDS011;76710;42.684;23.330;2024-03-29T00:48:27;3.13;;;0.68;;
86093;SDS011;76710;42.684;23.330;2024-03-29T00:50:53;2.28;;;0.50;;
86093;SDS011;76710;42.684;23.330;2024-03-29T00:53:18;5.65;;;0.73;;
86093;SDS011;76710;42.684;23.330;2024-03-29T00:55:44;1.38;;;0.50;;
86093;SDS011;76710;42.684;23.330;2024-03-29T00:58:09;3.55;;;0.55;;
86093;SDS011;76710;42.684;23.330;2024-03-29T01:03:01;3.13;;;0.50;;
86093;SDS011;76710;42.684;23.330;2024-03-29T01:05:26;2.67;;;0.40;;
86093;SDS011;76710;42.684;23.330;2024-03-29T01:07:52;1.98;;;0.32;;
86093;SDS011;76710;42.684;23.330;2024-03-29T01:10:17;1.23;;;0.40;;
86093;SDS011;76710;42.684;23.330;2024-03-29T01:12:43;4.05;;;0.60;;
86093;SDS011;76710;42.684;23.330;2024-03-29T01:15:08;3.05;;;0.52;;
86093;SDS011;76710;42.684;23.330;2024-03-29T01:17:34;2.42;;;0.47;;
86093;SDS011;76710;42.684;23.330;2024-03-29T01:19:59;1.85;;;0.30;;
86093;SDS011;76710;42.684;23.330;2024-03-29T01:22:25;4.28;;;0.38;;
86093;SDS011;76710;42.684;23.330;2024-03-29T01:27:16;1.38;;;0.50;;
86093;SDS011;76710;42.684;23.330;2024-03-29T01:29:42;3.55;;;0.60;;
86093;SDS011;76710;42.684;23.330;2024-03-29T01:32:08;3.08;;;0.52;;
86093;SDS011;76710;42.684;23.330;2024-03-29T01:34:33;2.22;;;0.60;;
86093;SDS011;76710;42.684;23.330;2024-03-29T01:36:58;2.80;;;0.70;;
86093;SDS011;76710;42.684;23.330;2024-03-29T01:39:24;2.13;;;0.50;;
86093;SDS011;76710;42.684;23.330;2024-03-29T01:41:54;1.70;;;0.50;;
86093;SDS011;76710;42.684;23.330;2024-03-29T01:44:19;2.63;;;0.60;;
86093;SDS011;76710;42.684;23.330;2024-03-29T01:46:45;2.67;;;0.52;;
86093;SDS011;76710;42.684;23.330;2024-03-29T01:49:12;4.15;;;0.68;;
86093;SDS011;76710;42.684;23.330;2024-03-29T01:51:38;3.47;;;0.70;;
86093;SDS011;76710;42.684;23.330;2024-03-29T01:54:05;2.38;;;0.40;;
86093;SDS011;76710;42.684;23.330;2024-03-29T01:56:34;3.53;;;0.60;;
86093;SDS011;76710;42.684;23.330;2024-03-29T01:59:00;2.08;;;0.73;;
86093;SDS011;76710;42.684;23.330;2024-03-29T02:01:28;3.17;;;0.70;;
86093;SDS011;76710;42.684;23.330;2024-03-29T02:03:55;3.03;;;0.55;;
86093;SDS011;76710;42.684;23.330;2024-03-29T02:06:21;2.25;;;0.73;;
86093;SDS011;76710;42.684;23.330;2024-03-29T02:08:49;2.55;;;0.50;;
86093;SDS011;76710;42.684;23.330;2024-03-29T02:11:16;2.80;;;0.68;;
86093;SDS011;76710;42.684;23.330;2024-03-29T02:13:42;4.25;;;0.63;;
86093;SDS011;76710;42.684;23.330;2024-03-29T02:16:09;4.75;;;0.80;;
86093;SDS011;76710;42.684;23.330;2024-03-29T02:18:34;3.42;;;0.60;;
86093;SDS011;76710;42.684;23.330;2024-03-29T02:21:00;2.70;;;0.43;;
86093;SDS011;76710;42.684;23.330;2024-03-29T02:23:29;4.00;;;0.85;;
86093;SDS011;76710;42.684;23.330;2024-03-29T02:25:57;4.13;;;0.70;;
86093;SDS011;76710;42.684;23.330;2024-03-29T02:28:23;3.40;;;0.90;;
86093;SDS011;76710;42.684;23.330;2024-03-29T02:30:49;4.55;;;0.80;;
86093;SDS011;76710;42.684;23.330;2024-03-29T02:33:15;3.45;;;0.80;;
86093;SDS011;76710;42.684;23.330;2024-03-29T02:35:42;5.85;;;0.65;;
86093;SDS011;76710;42.684;23.330;2024-03-29T02:40:33;2.53;;;0.60;;
86093;SDS011;76710;42.684;23.330;2024-03-29T02:42:58;2.17;;;0.60;;
86093;SDS011;76710;42.684;23.330;2024-03-29T02:45:23;2.78;;;0.70;;
86093;SDS011;76710;42.684;23.330;2024-03-29T02:47:49;3.60;;;0.80;;
86093;SDS011;76710;42.684;23.330;2024-03-29T02:50:15;2.40;;;0.77;;
86093;SDS011;76710;42.684;23.330;2024-03-29T02:52:41;5.63;;;0.90;;
86093;SDS011;76710;42.684;23.330;2024-03-29T02:55:07;2.55;;;0.70;;
86093;SDS011;76710;42.684;23.330;2024-03-29T02:57:33;1.65;;;0.63;;
86093;SDS011;76710;42.684;23.330;2024-03-29T02:59:58;5.10;;;0.82;;
86093;SDS011;76710;42.684;23.330;2024-03-29T03:02:24;2.50;;;0.60;;
86093;SDS011;76710;42.684;23.330;2024-03-29T03:04:49;3.75;;;0.75;;
86093;SDS011;76710;42.684;23.330;2024-03-29T03:07:14;1.70;;;0.60;;
86093;SDS011;76710;42.684;23.330;2024-03-29T03:09:58;2.38;;;0.63;;
86093;SDS011;76710;42.684;23.330;2024-03-29T03:12:43;3.47;;;0.80;;
86093;SDS011;76710;42.684;23.330;2024-03-29T03:15:08;3.13;;;0.77;;
86093;SDS011;76710;42.684;23.330;2024-03-29T03:17:34;2.30;;;0.60;;
86093;SDS011;76710;42.684;23.330;2024-03-29T03:19:59;2.85;;;1.00;;
86093;SDS011;76710;42.684;23.330;2024-03-29T03:22:25;3.08;;;0.98;;
86093;SDS011;76710;42.684;23.330;2024-03-29T03:24:50;5.25;;;0.68;;
86093;SDS011;76710;42.684;23.330;2024-03-29T03:27:16;3.75;;;0.57;;
86093;SDS011;76710;42.684;23.330;2024-03-29T03:29:41;3.15;;;0.85;;
86093;SDS011;76710;42.684;23.330;2024-03-29T03:32:07;4.20;;;0.90;;
86093;SDS011;76710;42.684;23.330;2024-03-29T03:34:32;4.07;;;0.70;;
86093;SDS011;76710;42.684;23.330;2024-03-29T03:36:59;4.28;;;0.75;;
86093;SDS011;76710;42.684;23.330;2024-03-29T03:39:24;3.78;;;0.77;;
86093;SDS011;76710;42.684;23.330;2024-03-29T03:41:50;2.13;;;0.63;;
86093;SDS011;76710;42.684;23.330;2024-03-29T03:44:15;3.40;;;0.80;;
86093;SDS011;76710;42.684;23.330;2024-03-29T03:46:41;2.25;;;0.65;;
86093;SDS011;76710;42.684;23.330;2024-03-29T03:49:06;3.55;;;0.93;;
86093;SDS011;76710;42.684;23.330;2024-03-29T03:51:32;1.83;;;0.70;;
86093;SDS011;76710;42.684;23.330;2024-03-29T03:53:57;3.85;;;1.45;;
86093;SDS011;76710;42.684;23.330;2024-03-29T03:56:23;2.80;;;0.80;;
86093;SDS011;76710;42.684;23.330;2024-03-29T03:58:48;5.50;;;0.90;;
86093;SDS011;76710;42.684;23.330;2024-03-29T04:01:14;4.85;;;0.90;;
86093;SDS011;76710;42.684;23.330;2024-03-29T04:03:39;3.67;;;0.90;;
86093;SDS011;76710;42.684;23.330;2024-03-29T04:06:05;3.55;;;0.70;;
86093;SDS011;76710;42.684;23.330;2024-03-29T04:08:31;5.88;;;0.98;;
86093;SDS011;76710;42.684;23.330;2024-03-29T04:10:56;5.28;;;0.82;;
86093;SDS011;76710;42.684;23.330;2024-03-29T04:13:22;5.28;;;1.00;;
86093;SDS011;76710;42.684;23.330;2024-03-29T04:15:48;5.35;;;1.05;;
86093;SDS011;76710;42.684;23.330;2024-03-29T04:18:13;2.45;;;0.45;;
86093;SDS011;76710;42.684;23.330;2024-03-29T04:20:39;2.33;;;0.80;;
86093;SDS011;76710;42.684;23.330;2024-03-29T04:23:05;5.38;;;1.33;;
86093;SDS011;76710;42.684;23.330;2024-03-29T04:27:57;4.53;;;0.70;;
86093;SDS011;76710;42.684;23.330;2024-03-29T04:30:23;3.30;;;1.13;;
86093;SDS011;76710;42.684;23.330;2024-03-29T04:32:48;5.80;;;1.02;;
86093;SDS011;76710;42.684;23.330;2024-03-29T04:35:14;2.83;;;1.30;;
86093;SDS011;76710;42.684;23.330;2024-03-29T04:37:39;3.70;;;1.00;;
86093;SDS011;76710;42.684;23.330;2024-03-29T04:40:05;11.02;;;4.60;;
86093;SDS011;76710;42.684;23.330;2024-03-29T04:42:31;8.50;;;3.45;;
86093;SDS011;76710;42.684;23.330;2024-03-29T04:44:57;5.57;;;2.53;;
86093;SDS011;76710;42.684;23.330;2024-03-29T04:47:22;8.63;;;3.47;;
86093;SDS011;76710;42.684;23.330;2024-03-29T04:49:48;8.07;;;2.70;;
86093;SDS011;76710;42.684;23.330;2024-03-29T04:52:13;7.80;;;2.40;;
86093;SDS011;76710;42.684;23.330;2024-03-29T04:54:39;10.45;;;2.50;;
86093;SDS011;76710;42.684;23.330;2024-03-29T04:57:05;7.35;;;2.25;;
86093;SDS011;76710;42.684;23.330;2024-03-29T04:59:33;6.10;;;2.15;;
86093;SDS011;76710;42.684;23.330;2024-03-29T05:01:59;4.45;;;1.98;;
86093;SDS011;76710;42.684;23.330;2024-03-29T05:04:25;3.25;;;1.05;;
86093;SDS011;76710;42.684;23.330;2024-03-29T05:06:51;3.70;;;1.42;;
86093;SDS011;76710;42.684;23.330;2024-03-29T05:09:18;8.50;;;1.67;;
86093;SDS011;76710;42.684;23.330;2024-03-29T05:11:44;6.00;;;1.67;;
86093;SDS011;76710;42.684;23.330;2024-03-29T05:14:09;5.80;;;1.17;;
86093;SDS011;76710;42.684;23.330;2024-03-29T05:16:35;4.70;;;1.30;;
86093;SDS011;76710;42.684;23.330;2024-03-29T05:19:01;6.38;;;1.55;;
86093;SDS011;76710;42.684;23.330;2024-03-29T05:21:26;9.38;;;2.63;;
86093;SDS011;76710;42.684;23.330;2024-03-29T05:23:52;6.15;;;2.00;;
86093;SDS011;76710;42.684;23.330;2024-03-29T05:26:18;6.55;;;1.92;;
86093;SDS011;76710;42.684;23.330;2024-03-29T05:28:43;8.82;;;1.95;;
86093;SDS011;76710;42.684;23.330;2024-03-29T05:31:13;8.70;;;1.75;;
86093;SDS011;76710;42.684;23.330;2024-03-29T05:33:42;6.57;;;1.45;;
86093;SDS011;76710;42.684;23.330;2024-03-29T05:36:08;6.22;;;1.65;;
86093;SDS011;76710;42.684;23.330;2024-03-29T05:38:37;6.63;;;1.73;;
86093;SDS011;76710;42.684;23.330;2024-03-29T05:41:02;6.35;;;1.50;;
86093;SDS011;76710;42.684;23.330;2024-03-29T05:43:28;7.30;;;1.77;;
86093;SDS011;76710;42.684;23.330;2024-03-29T05:45:54;8.32;;;1.45;;
86093;SDS011;76710;42.684;23.330;2024-03-29T05:48:19;5.28;;;1.63;;
86093;SDS011;76710;42.684;23.330;2024-03-29T05:50:45;7.30;;;1.50;;
86093;SDS011;76710;42.684;23.330;2024-03-29T05:53:11;7.22;;;1.65;;
86093;SDS011;76710;42.684;23.330;2024-03-29T05:55:36;7.28;;;2.20;;
86093;SDS011;76710;42.684;23.330;2024-03-29T05:58:02;6.28;;;1.38;;
86093;SDS011;76710;42.684;23.330;2024-03-29T06:00:28;5.40;;;1.17;;
86093;SDS011;76710;42.684;23.330;2024-03-29T06:02:54;6.18;;;1.30;;
86093;SDS011;76710;42.684;23.330;2024-03-29T06:05:20;5.65;;;1.30;;
86093;SDS011;76710;42.684;23.330;2024-03-29T06:07:48;4.13;;;1.25;;
86093;SDS011;76710;42.684;23.330;2024-03-29T06:10:13;4.68;;;1.23;;
86093;SDS011;76710;42.684;23.330;2024-03-29T06:12:40;5.55;;;1.15;;
86093;SDS011;76710;42.684;23.330;2024-03-29T06:15:06;4.75;;;1.23;;
86093;SDS011;76710;42.684;23.330;2024-03-29T06:17:50;4.43;;;1.27;;
86093;SDS011;76710;42.684;23.330;2024-03-29T06:20:15;6.18;;;1.48;;
86093;SDS011;76710;42.684;23.330;2024-03-29T06:22:41;5.40;;;1.40;;
86093;SDS011;76710;42.684;23.330;2024-03-29T06:25:07;6.28;;;1.50;;
86093;SDS011;76710;42.684;23.330;2024-03-29T06:27:34;5.78;;;1.58;;
86093;SDS011;76710;42.684;23.330;2024-03-29T06:30:03;4.60;;;1.65;;
86093;SDS011;76710;42.684;23.330;2024-03-29T06:32:30;6.55;;;1.40;;
86093;SDS011;76710;42.684;23.330;2024-03-29T06:34:58;4.88;;;1.70;;
86093;SDS011;76710;42.684;23.330;2024-03-29T06:37:24;3.88;;;1.20;;
86093;SDS011;76710;42.684;23.330;2024-03-29T06:39:50;6.55;;;1.60;;
86093;SDS011;76710;42.684;23.330;2024-03-29T06:42:16;6.57;;;1.23;;
86093;SDS011;76710;42.684;23.330;2024-03-29T06:47:07;2.60;;;0.80;;
86093;SDS011;76710;42.684;23.330;2024-03-29T06:49:33;4.32;;;0.73;;
86093;SDS011;76710;42.684;23.330;2024-03-29T06:54:26;5.32;;;0.85;;
86093;SDS011;76710;42.684;23.330;2024-03-29T06:56:55;2.33;;;0.57;;
86093;SDS011;76710;42.684;23.330;2024-03-29T06:59:21;4.82;;;0.88;;
86093;SDS011;76710;42.684;23.330;2024-03-29T07:01:48;2.55;;;0.60;;
86093;SDS011;76710;42.684;23.330;2024-03-29T07:04:24;3.97;;;0.98;;
86093;SDS011;76710;42.684;23.330;2024-03-29T07:06:52;3.40;;;0.63;;
86093;SDS011;76710;42.684;23.330;2024-03-29T07:09:19;3.50;;;0.77;;
86093;SDS011;76710;42.684;23.330;2024-03-29T07:11:46;3.85;;;0.50;;
86093;SDS011;76710;42.684;23.330;2024-03-29T07:14:13;3.13;;;0.93;;
86093;SDS011;76710;42.684;23.330;2024-03-29T07:16:45;5.03;;;0.90;;
86093;SDS011;76710;42.684;23.330;2024-03-29T07:19:12;2.42;;;0.65;;
86093;SDS011;76710;42.684;23.330;2024-03-29T07:21:40;3.65;;;0.82;;
86093;SDS011;76710;42.684;23.330;2024-03-29T07:24:06;4.25;;;0.85;;
86093;SDS011;76710;42.684;23.330;2024-03-29T07:26:32;4.80;;;0.77;;
86093;SDS011;76710;42.684;23.330;2024-03-29T07:28:58;5.47;;;0.60;;
86093;SDS011;76710;42.684;23.330;2024-03-29T07:33:48;3.33;;;0.60;;
86093;SDS011;76710;42.684;23.330;2024-03-29T07:38:41;3.33;;;1.20;;
86093;SDS011;76710;42.684;23.330;2024-03-29T07:41:07;3.47;;;0.47;;
86093;SDS011;76710;42.684;23.330;2024-03-29T07:43:40;3.10;;;0.40;;
86093;SDS011;76710;42.684;23.330;2024-03-29T07:46:16;2.10;;;0.50;;
86093;SDS011;76710;42.684;23.330;2024-03-29T07:48:41;2.63;;;0.50;;
86093;SDS011;76710;42.684;23.330;2024-03-29T07:51:07;2.38;;;0.55;;
86093;SDS011;76710;42.684;23.330;2024-03-29T07:53:32;1.85;;;0.50;;
86093;SDS011;76710;42.684;23.330;2024-03-29T07:55:58;2.85;;;0.82;;
86093;SDS011;76710;42.684;23.330;2024-03-29T07:58:23;4.50;;;0.80;;
86093;SDS011;76710;42.684;23.330;2024-03-29T08:00:49;3.70;;;0.90;;
86093;SDS011;76710;42.684;23.330;2024-03-29T08:03:16;5.10;;;0.98;;
86093;SDS011;76710;42.684;23.330;2024-03-29T08:05:41;2.53;;;0.73;;
86093;SDS011;76710;42.684;23.330;2024-03-29T08:08:07;1.92;;;0.70;;
86093;SDS011;76710;42.684;23.330;2024-03-29T08:10:32;4.78;;;1.10;;
86093;SDS011;76710;42.684;23.330;2024-03-29T08:12:58;4.80;;;0.80;;
86093;SDS011;76710;42.684;23.330;2024-03-29T08:15:26;3.33;;;0.73;;
86093;SDS011;76710;42.684;23.330;2024-03-29T08:17:52;2.92;;;0.60;;
86093;SDS011;76710;42.684;23.330;2024-03-29T08:20:18;5.07;;;1.23;;
86093;SDS011;76710;42.684;23.330;2024-03-29T08:22:47;3.72;;;0.60;;
86093;SDS011;76710;42.684;23.330;2024-03-29T08:25:13;3.80;;;0.88;;
86093;SDS011;76710;42.684;23.330;2024-03-29T08:27:39;3.30;;;0.77;;
86093;SDS011;76710;42.684;23.330;2024-03-29T08:30:05;1.98;;;0.73;;
86093;SDS011;76710;42.684;23.330;2024-03-29T08:32:31;3.45;;;0.57;;
86093;SDS011;76710;42.684;23.330;2024-03-29T08:34:57;3.10;;;0.60;;
86093;SDS011;76710;42.684;23.330;2024-03-29T08:37:23;1.73;;;0.57;;
86093;SDS011;76710;42.684;23.330;2024-03-29T08:39:48;4.30;;;0.73;;
86093;SDS011;76710;42.684;23.330;2024-03-29T08:42:14;2.90;;;0.55;;
86093;SDS011;76710;42.684;23.330;2024-03-29T08:44:41;4.78;;;1.30;;
86093;SDS011;76710;42.684;23.330;2024-03-29T08:47:07;4.78;;;0.73;;
86093;SDS011;76710;42.684;23.330;2024-03-29T08:49:34;6.65;;;0.82;;
86093;SDS011;76710;42.684;23.330;2024-03-29T08:52:00;4.55;;;1.23;;
86093;SDS011;76710;42.684;23.330;2024-03-29T08:54:29;5.22;;;0.75;;
86093;SDS011;76710;42.684;23.330;2024-03-29T08:56:55;4.40;;;0.98;;
86093;SDS011;76710;42.684;23.330;2024-03-29T08:59:21;5.25;;;0.80;;
86093;SDS011;76710;42.684;23.330;2024-03-29T09:01:48;3.97;;;0.47;;
86093;SDS011;76710;42.684;23.330;2024-03-29T09:04:14;6.40;;;0.98;;
86093;SDS011;76710;42.684;23.330;2024-03-29T09:06:41;2.53;;;0.90;;
86093;SDS011;76710;42.684;23.330;2024-03-29T09:09:07;2.10;;;0.70;;
86093;SDS011;76710;42.684;23.330;2024-03-29T09:11:33;4.72;;;0.90;;
86093;SDS011;76710;42.684;23.330;2024-03-29T09:13:59;8.07;;;1.00;;
86093;SDS011;76710;42.684;23.330;2024-03-29T09:16:26;3.78;;;0.50;;
86093;SDS011;76710;42.684;23.330;2024-03-29T09:18:51;4.65;;;0.80;;
86093;SDS011;76710;42.684;23.330;2024-03-29T09:21:19;1.98;;;0.63;;
86093;SDS011;76710;42.684;23.330;2024-03-29T09:23:45;1.83;;;0.73;;
86093;SDS011;76710;42.684;23.330;2024-03-29T09:26:14;3.90;;;0.90;;
86093;SDS011;76710;42.684;23.330;2024-03-29T09:28:40;2.80;;;0.80;;
86093;SDS011;76710;42.684;23.330;2024-03-29T09:31:06;3.70;;;0.85;;
86093;SDS011;76710;42.684;23.330;2024-03-29T09:33:31;5.50;;;1.40;;
86093;SDS011;76710;42.684;23.330;2024-03-29T09:35:57;6.25;;;1.25;;
86093;SDS011;76710;42.684;23.330;2024-03-29T09:38:24;3.90;;;0.95;;
86093;SDS011;76710;42.684;23.330;2024-03-29T09:41:00;5.82;;;1.17;;
86093;SDS011;76710;42.684;23.330;2024-03-29T09:43:35;3.30;;;1.38;;
86093;SDS011;76710;42.684;23.330;2024-03-29T09:46:01;9.05;;;0.90;;
86093;SDS011;76710;42.684;23.330;2024-03-29T09:48:27;4.93;;;0.85;;
86093;SDS011;76710;42.684;23.330;2024-03-29T09:51:01;8.35;;;3.70;;
86093;SDS011;76710;42.684;23.330;2024-03-29T09:53:31;9.15;;;4.07;;
86093;SDS011;76710;42.684;23.330;2024-03-29T09:55:59;4.60;;;1.80;;
86093;SDS011;76710;42.684;23.330;2024-03-29T09:58:26;6.10;;;1.77;;
86093;SDS011;76710;42.684;23.330;2024-03-29T10:00:52;6.43;;;1.90;;
86093;SDS011;76710;42.684;23.330;2024-03-29T10:03:17;5.07;;;1.75;;
86093;SDS011;76710;42.684;23.330;2024-03-29T10:05:45;4.07;;;1.27;;
86093;SDS011;76710;42.684;23.330;2024-03-29T10:08:13;6.50;;;2.47;;
86093;SDS011;76710;42.684;23.330;2024-03-29T10:10:39;3.17;;;1.88;;
86093;SDS011;76710;42.684;23.330;2024-03-29T10:13:06;4.50;;;1.80;;
86093;SDS011;76710;42.684;23.330;2024-03-29T10:15:31;6.13;;;2.95;;
86093;SDS011;76710;42.684;23.330;2024-03-29T10:18:02;4.78;;;1.52;;
86093;SDS011;76710;42.684;23.330;2024-03-29T10:20:28;5.30;;;1.30;;
86093;SDS011;76710;42.684;23.330;2024-03-29T10:22:55;3.55;;;1.02;;
86093;SDS011;76710;42.684;23.330;2024-03-29T10:25:22;4.68;;;2.25;;
86093;SDS011;76710;42.684;23.330;2024-03-29T10:27:48;9.48;;;3.60;;
86093;SDS011;76710;42.684;23.330;2024-03-29T10:30:14;3.60;;;1.20;;
86093;SDS011;76710;42.684;23.330;2024-03-29T10:32:44;6.45;;;0.85;;
86093;SDS011;76710;42.684;23.330;2024-03-29T10:35:10;4.30;;;1.17;;
86093;SDS011;76710;42.684;23.330;2024-03-29T10:37:36;4.47;;;1.85;;
86093;SDS011;76710;42.684;23.330;2024-03-29T10:40:08;4.40;;;1.30;;
86093;SDS011;76710;42.684;23.330;2024-03-29T10:42:36;2.67;;;1.20;;
86093;SDS011;76710;42.684;23.330;2024-03-29T10:45:03;5.30;;;1.02;;
86093;SDS011;76710;42.684;23.330;2024-03-29T10:47:31;3.38;;;1.00;;
86093;SDS011;76710;42.684;23.330;2024-03-29T10:49:58;6.05;;;1.60;;
86093;SDS011;76710;42.684;23.330;2024-03-29T10:52:24;2.40;;;1.00;;
86093;SDS011;76710;42.684;23.330;2024-03-29T10:54:51;3.33;;;0.82;;
86093;SDS011;76710;42.684;23.330;2024-03-29T11:02:49;4.75;;;1.05;;
86093;SDS011;76710;42.684;23.330;2024-03-29T11:05:16;2.92;;;1.00;;
86093;SDS011;76710;42.684;23.330;2024-03-29T11:07:42;4.45;;;0.93;;
86093;SDS011;76710;42.684;23.330;2024-03-29T11:16:01;3.60;;;1.20;;
86093;SDS011;76710;42.684;23.330;2024-03-29T11:18:27;5.95;;;1.10;;
86093;SDS011;76710;42.684;23.330;2024-03-29T11:20:54;2.78;;;0.85;;
86093;SDS011;76710;42.684;23.330;2024-03-29T11:23:22;6.45;;;0.93;;
86093;SDS011;76710;42.684;23.330;2024-03-29T11:25:49;3.00;;;0.90;;
86093;SDS011;76710;42.684;23.330;2024-03-29T11:28:22;5.30;;;1.30;;
86093;SDS011;76710;42.684;23.330;2024-03-29T11:33:27;5.07;;;1.23;;
86093;SDS011;76710;42.684;23.330;2024-03-29T11:35:53;7.80;;;1.42;;
86093;SDS011;76710;42.684;23.330;2024-03-29T11:38:19;3.75;;;0.85;;
86093;SDS011;76710;42.684;23.330;2024-03-29T11:43:43;4.53;;;1.20;;
86093;SDS011;76710;42.684;23.330;2024-03-29T11:46:11;3.55;;;0.77;;
86093;SDS011;76710;42.684;23.330;2024-03-29T11:48:38;6.53;;;1.00;;
86093;SDS011;76710;42.684;23.330;2024-03-29T11:51:04;4.97;;;0.98;;
86093;SDS011;76710;42.684;23.330;2024-03-29T11:53:35;5.07;;;1.42;;
86093;SDS011;76710;42.684;23.330;2024-03-29T11:56:02;4.90;;;1.25;;
86093;SDS011;76710;42.684;23.330;2024-03-29T11:58:29;3.70;;;0.80;;
86093;SDS011;76710;42.684;23.330;2024-03-29T12:00:56;4.55;;;0.85;;
86093;SDS011;76710;42.684;23.330;2024-03-29T12:03:23;3.60;;;1.10;;
86093;SDS011;76710;42.684;23.330;2024-03-29T12:05:53;4.75;;;1.05;;
86093;SDS011;76710;42.684;23.330;2024-03-29T12:08:23;3.72;;;0.85;;
86093;SDS011;76710;42.684;23.330;2024-03-29T12:10:49;2.28;;;0.80;;
86093;SDS011;76710;42.684;23.330;2024-03-29T12:13:18;5.03;;;1.65;;
86093;SDS011;76710;42.684;23.330;2024-03-29T12:15:44;4.68;;;1.33;;
86093;SDS011;76710;42.684;23.330;2024-03-29T12:18:10;3.35;;;0.63;;
86093;SDS011;76710;42.684;23.330;2024-03-29T12:20:37;5.30;;;1.58;;
86093;SDS011;76710;42.684;23.330;2024-03-29T12:23:08;4.88;;;0.93;;
86093;SDS011;76710;42.684;23.330;2024-03-29T12:25:35;5.25;;;0.95;;
86093;SDS011;76710;42.684;23.330;2024-03-29T12:28:02;2.55;;;0.73;;
86093;SDS011;76710;42.684;23.330;2024-03-29T12:30:28;5.45;;;1.08;;
86093;SDS011;76710;42.684;23.330;2024-03-29T12:35:26;6.50;;;1.63;;
86093;SDS011;76710;42.684;23.330;2024-03-29T12:37:52;5.10;;;1.55;;
86093;SDS011;76710;42.684;23.330;2024-03-29T12:40:18;7.38;;;0.93;;
86093;SDS011;76710;42.684;23.330;2024-03-29T12:42:51;5.60;;;0.90;;
86093;SDS011;76710;42.684;23.330;2024-03-29T12:45:17;6.35;;;0.93;;
86093;SDS011;76710;42.684;23.330;2024-03-29T12:47:44;2.85;;;0.63;;
86093;SDS011;76710;42.684;23.330;2024-03-29T12:50:17;3.38;;;0.65;;
86093;SDS011;76710;42.684;23.330;2024-03-29T12:52:49;4.43;;;0.77;;
86093;SDS011;76710;42.684;23.330;2024-03-29T12:55:14;3.35;;;0.70;;
86093;SDS011;76710;42.684;23.330;2024-03-29T12:57:43;3.58;;;0.82;;
86093;SDS011;76710;42.684;23.330;2024-03-29T13:00:10;5.18;;;0.88;;
86093;SDS011;76710;42.684;23.330;2024-03-29T13:02:36;3.97;;;0.77;;
86093;SDS011;76710;42.684;23.330;2024-03-29T13:05:03;4.32;;;1.20;;
86093;SDS011;76710;42.684;23.330;2024-03-29T13:07:29;5.75;;;1.25;;
86093;SDS011;76710;42.684;23.330;2024-03-29T13:09:55;2.55;;;0.85;;
86093;SDS011;76710;42.684;23.330;2024-03-29T13:12:21;6.55;;;0.85;;
86093;SDS011;76710;42.684;23.330;2024-03-29T13:14:46;7.05;;;0.93;;
86093;SDS011;76710;42.684;23.330;2024-03-29T13:17:12;2.63;;;0.75;;
86093;SDS011;76710;42.684;23.330;2024-03-29T13:19:37;1.85;;;0.80;;
86093;SDS011;76710;42.684;23.330;2024-03-29T13:22:03;6.40;;;1.52;;
86093;SDS011;76710;42.684;23.330;2024-03-29T13:24:28;5.25;;;0.90;;
86093;SDS011;76710;42.684;23.330;2024-03-29T13:26:54;4.15;;;1.45;;
86093;SDS011;76710;42.684;23.330;2024-03-29T13:29:20;4.45;;;1.48;;
86093;SDS011;76710;42.684;23.330;2024-03-29T13:31:46;6.20;;;1.60;;
86093;SDS011;76710;42.684;23.330;2024-03-29T13:34:11;2.85;;;0.80;;
86093;SDS011;76710;42.684;23.330;2024-03-29T13:36:40;2.05;;;0.77;;
86093;SDS011;76710;42.684;23.330;2024-03-29T13:39:26;2.92;;;0.60;;
86093;SDS011;76710;42.684;23.330;2024-03-29T13:41:52;2.40;;;0.52;;
86093;SDS011;76710;42.684;23.330;2024-03-29T13:44:18;5.97;;;0.77;;
86093;SDS011;76710;42.684;23.330;2024-03-29T13:46:44;2.15;;;0.50;;
86093;SDS011;76710;42.684;23.330;2024-03-29T13:49:10;3.10;;;0.73;;
86093;SDS011;76710;42.684;23.330;2024-03-29T13:51:37;2.38;;;0.65;;
86093;SDS011;76710;42.684;23.330;2024-03-29T13:54:03;2.85;;;0.60;;
86093;SDS011;76710;42.684;23.330;2024-03-29T13:56:28;2.63;;;0.57;;
86093;SDS011;76710;42.684;23.330;2024-03-29T13:58:54;2.10;;;0.57;;
86093;SDS011;76710;42.684;23.330;2024-03-29T14:01:19;2.45;;;0.80;;
86093;SDS011;76710;42.684;23.330;2024-03-29T14:03:45;2.40;;;0.73;;
86093;SDS011;76710;42.684;23.330;2024-03-29T14:06:10;2.13;;;0.70;;
86093;SDS011;76710;42.684;23.330;2024-03-29T14:08:36;4.47;;;0.80;;
86093;SDS011;76710;42.684;23.330;2024-03-29T14:11:02;3.40;;;1.30;;
86093;SDS011;76710;42.684;23.330;2024-03-29T14:13:27;2.50;;;0.50;;
86093;SDS011;76710;42.684;23.330;2024-03-29T14:15:54;3.40;;;0.93;;
86093;SDS011;76710;42.684;23.330;2024-03-29T14:18:20;5.10;;;1.40;;
86093;SDS011;76710;42.684;23.330;2024-03-29T14:20:49;2.47;;;0.55;;
86093;SDS011;76710;42.684;23.330;2024-03-29T14:23:14;3.58;;;1.80;;
86093;SDS011;76710;42.684;23.330;2024-03-29T14:25:58;1.67;;;0.60;;
86093;SDS011;76710;42.684;23.330;2024-03-29T14:28:24;3.17;;;0.40;;
86093;SDS011;76710;42.684;23.330;2024-03-29T14:30:49;2.28;;;0.65;;
86093;SDS011;76710;42.684;23.330;2024-03-29T14:33:15;1.95;;;0.50;;
86093;SDS011;76710;42.684;23.330;2024-03-29T14:35:40;5.00;;;1.35;;
86093;SDS011;76710;42.684;23.330;2024-03-29T14:38:08;2.55;;;0.60;;
86093;SDS011;76710;42.684;23.330;2024-03-29T14:40:34;3.97;;;1.58;;
86093;SDS011;76710;42.684;23.330;2024-03-29T14:43:03;5.18;;;1.80;;
86093;SDS011;76710;42.684;23.330;2024-03-29T14:45:30;3.03;;;0.65;;
86093;SDS011;76710;42.684;23.330;2024-03-29T14:47:56;6.93;;;0.77;;
86093;SDS011;76710;42.684;23.330;2024-03-29T14:50:22;6.38;;;1.73;;
86093;SDS011;76710;42.684;23.330;2024-03-29T14:52:47;8.63;;;1.00;;
86093;SDS011;76710;42.684;23.330;2024-03-29T14:55:13;4.65;;;1.00;;
86093;SDS011;76710;42.684;23.330;2024-03-29T14:57:39;4.80;;;1.40;;
86093;SDS011;76710;42.684;23.330;2024-03-29T15:00:08;4.45;;;1.63;;
86093;SDS011;76710;42.684;23.330;2024-03-29T15:02:34;5.90;;;1.80;;
86093;SDS011;76710;42.684;23.330;2024-03-29T15:05:00;3.40;;;1.00;;
86093;SDS011;76710;42.684;23.330;2024-03-29T15:07:26;7.72;;;2.00;;
86093;SDS011;76710;42.684;23.330;2024-03-29T15:09:52;4.63;;;0.93;;